Time;durP1;ratioP1;P1;durP2;ratioP2;P2;SDS_P1;SDS_P2;PMS_P1;PMS_P2;Temp;Humidity;BMP_temperature;BMP_pressure;BME280_temperature;BME280_humidity;BME280_pressure;Samples;Min_cycle;Max_cycle;Signal;HPM_P1;HPM_P2
2022/06/01 00:01:20;;;;;;;2.80;2.60;;;12.00;99.90;;;;;;7366731;19;20321;-67
2022/06/01 00:03:46;;;;;;;2.90;2.70;;;12.00;99.90;;;;;;7368694;19;20377;-67
2022/06/01 00:06:11;;;;;;;2.70;2.50;;;11.70;99.90;;;;;;7369060;19;20340;-67
2022/06/01 00:08:38;;;;;;;3.13;2.83;;;11.60;99.90;;;;;;7368960;19;20371;-67
2022/06/01 00:11:03;;;;;;;2.10;2.00;;;11.60;99.90;;;;;;7367211;19;20416;-67
2022/06/01 00:13:29;;;;;;;1.90;1.80;;;11.70;99.90;;;;;;7369705;19;20409;-67
2022/06/01 00:15:54;;;;;;;2.67;2.47;;;11.70;99.90;;;;;;7366805;19;21356;-67
2022/06/01 00:18:22;;;;;;;3.00;2.80;;;11.70;99.90;;;;;;7376547;19;20908;-67
2022/06/01 00:20:48;;;;;;;2.38;2.00;;;11.60;99.90;;;;;;7376019;19;20336;-67
2022/06/01 00:23:13;;;;;;;2.20;2.10;;;11.60;99.90;;;;;;7374354;19;20348;-67
2022/06/01 00:25:39;;;;;;;4.30;3.10;;;11.50;99.90;;;;;;7376356;19;20339;-67
2022/06/01 00:28:05;;;;;;;3.47;3.17;;;11.40;99.90;;;;;;7376022;19;20356;-67
2022/06/01 00:30:32;;;;;;;2.50;2.30;;;11.20;99.90;;;;;;7375439;19;20336;-67
2022/06/01 00:32:57;;;;;;;3.20;2.90;;;11.30;99.90;;;;;;7375179;19;20356;-67
2022/06/01 00:35:24;;;;;;;4.25;3.63;;;11.20;99.90;;;;;;7377480;19;20364;-67
2022/06/01 00:37:49;;;;;;;3.33;3.03;;;11.20;99.90;;;;;;7375011;19;20372;-67
2022/06/01 00:40:16;;;;;;;3.40;3.10;;;11.20;99.90;;;;;;7377754;19;20345;-67
2022/06/01 00:42:43;;;;;;;4.00;3.65;;;11.20;99.90;;;;;;7374945;19;20352;-67
2022/06/01 00:45:09;;;;;;;4.83;3.93;;;11.10;99.90;;;;;;7375699;19;20368;-67
2022/06/01 00:47:35;;;;;;;3.83;3.42;;;11.10;99.90;;;;;;7374728;19;20367;-67
2022/06/01 00:50:18;;;;;;;3.80;3.50;;;11.00;99.90;;;;;;7375408;19;20372;-67
2022/06/01 00:52:48;;;;;;;3.60;3.30;;;10.90;99.90;;;;;;7372315;19;21489;-67
2022/06/01 00:55:16;;;;;;;3.60;3.30;;;10.90;99.90;;;;;;7372998;19;20356;-67
2022/06/01 00:57:42;;;;;;;3.70;3.35;;;10.90;99.90;;;;;;7374998;19;20345;-66
2022/06/01 01:00:14;;;;;;;4.10;3.65;;;10.80;99.90;;;;;;7374541;19;20389;-67
2022/06/01 01:02:39;;;;;;;4.00;3.60;;;10.80;99.90;;;;;;7375926;19;20328;-67
2022/06/01 01:05:06;;;;;;;3.60;3.30;;;10.70;99.90;;;;;;7375706;19;20386;-67
2022/06/01 01:07:31;;;;;;;3.92;3.63;;;10.80;99.90;;;;;;7375748;19;20378;-67
2022/06/01 01:09:57;;;;;;;3.67;3.40;;;10.70;99.90;;;;;;7374644;19;20989;-67
2022/06/01 01:12:22;;;;;;;3.65;3.40;;;10.80;99.90;;;;;;7374474;19;20352;-67
2022/06/01 01:14:48;;;;;;;3.63;3.33;;;10.80;99.90;;;;;;7365886;19;21367;-67
2022/06/01 01:17:14;;;;;;;4.00;3.70;;;10.80;99.90;;;;;;7346720;19;20339;-67
2022/06/01 01:19:46;;;;;;;4.00;3.70;;;10.70;99.90;;;;;;7352749;19;20372;-67
2022/06/01 01:22:27;;;;;;;3.57;3.27;;;10.70;99.90;;;;;;7367411;19;20376;-67
2022/06/01 01:25:15;;;;;;;3.72;3.42;;;10.80;99.90;;;;;;7373082;19;20381;-67
2022/06/01 01:27:42;;;;;;;3.72;3.22;;;10.80;99.90;;;;;;7372103;19;20882;-67
2022/06/01 01:30:24;;;;;;;4.03;3.63;;;10.90;99.90;;;;;;7371692;19;20804;-67
2022/06/01 01:32:49;;;;;;;3.47;3.17;;;10.90;99.90;;;;;;7373187;19;20372;-67
2022/06/01 01:35:15;;;;;;;4.22;3.88;;;10.80;99.90;;;;;;7374172;19;20344;-67
2022/06/01 01:37:41;;;;;;;3.90;3.60;;;10.80;99.90;;;;;;7371238;19;20858;-67
2022/06/01 01:40:07;;;;;;;4.50;4.10;;;10.80;99.90;;;;;;7371146;19;20340;-67
2022/06/01 01:42:32;;;;;;;4.32;3.92;;;10.80;99.90;;;;;;7370853;19;20357;-67
2022/06/01 01:45:04;;;;;;;3.30;3.10;;;10.80;99.90;;;;;;7371887;19;20364;-66
2022/06/01 01:47:29;;;;;;;3.58;3.28;;;10.70;99.90;;;;;;7372677;19;20389;-67
2022/06/01 01:49:55;;;;;;;4.30;3.90;;;10.70;99.90;;;;;;7371092;19;20771;-67
2022/06/01 01:52:21;;;;;;;4.40;3.33;;;10.70;99.90;;;;;;7371708;19;20373;-67
2022/06/01 01:54:52;;;;;;;3.70;3.47;;;10.70;99.90;;;;;;7372447;19;21050;-68
2022/06/01 01:57:49;;;;;;;3.67;3.38;;;10.70;99.90;;;;;;7365501;19;20352;-67
2022/06/01 02:00:27;;;;;;;3.63;3.33;;;10.70;99.90;;;;;;7373439;19;20376;-67
2022/06/01 02:03:03;;;;;;;3.83;3.53;;;10.70;99.90;;;;;;7370133;19;20928;-66
2022/06/01 02:06:07;;;;;;;4.22;3.83;;;10.70;99.90;;;;;;7375217;19;20352;-67
2022/06/01 02:08:38;;;;;;;3.97;3.58;;;10.60;99.90;;;;;;7372336;19;20806;-66
2022/06/01 02:14:06;;;;;;;4.35;3.72;;;10.60;99.90;;;;;;7372264;19;20360;-67
2022/06/01 02:16:35;;;;;;;4.20;3.83;;;10.50;99.90;;;;;;7367770;19;20875;-67
2022/06/01 02:19:01;;;;;;;3.92;3.63;;;10.40;99.90;;;;;;7368901;19;20356;-67
2022/06/01 02:21:27;;;;;;;5.53;4.10;;;10.50;99.90;;;;;;7369726;19;20356;-67
2022/06/01 02:23:53;;;;;;;4.22;3.92;;;10.50;99.90;;;;;;7373133;19;20397;-67
2022/06/01 02:26:19;;;;;;;4.18;3.88;;;10.40;99.90;;;;;;7374046;19;20356;-67
2022/06/01 02:28:46;;;;;;;4.93;4.40;;;10.30;99.90;;;;;;7370965;19;20911;-67
2022/06/01 02:31:11;;;;;;;4.07;3.72;;;10.10;99.90;;;;;;7369448;19;20359;-68
2022/06/01 02:33:37;;;;;;;4.07;3.67;;;10.10;99.90;;;;;;7372572;19;20348;-69
2022/06/01 02:36:03;;;;;;;4.20;3.90;;;10.10;99.90;;;;;;7369583;19;20364;-67
2022/06/01 02:38:36;;;;;;;5.37;4.70;;;10.00;99.90;;;;;;7369883;19;20369;-67
2022/06/01 02:41:02;;;;;;;4.22;3.83;;;10.00;99.90;;;;;;7368332;19;20356;-67
2022/06/01 02:43:28;;;;;;;5.50;4.55;;;10.00;99.90;;;;;;7370197;19;20718;-67
2022/06/01 02:45:54;;;;;;;5.00;4.60;;;9.90;99.90;;;;;;7370209;19;20360;-67
2022/06/01 02:48:19;;;;;;;4.80;4.30;;;9.80;99.90;;;;;;7374346;19;20372;-67
2022/06/01 02:50:45;;;;;;;5.13;4.72;;;9.80;99.90;;;;;;7370313;19;20762;-67
2022/06/01 02:53:11;;;;;;;4.40;4.03;;;9.70;99.90;;;;;;7372587;19;20976;-67
2022/06/01 02:55:36;;;;;;;4.22;3.92;;;9.70;99.90;;;;;;7370032;19;20349;-67
2022/06/01 02:58:03;;;;;;;4.67;4.27;;;9.80;99.90;;;;;;7370563;19;20424;-67
2022/06/01 03:00:33;;;;;;;4.45;4.15;;;9.80;99.90;;;;;;7371680;19;20320;-67
2022/06/01 03:02:59;;;;;;;4.57;4.18;;;9.80;99.90;;;;;;7369350;19;20337;-67
2022/06/01 03:05:32;;;;;;;4.40;4.00;;;9.80;99.90;;;;;;7371633;19;20352;-67
2022/06/01 03:07:57;;;;;;;5.60;5.10;;;9.90;99.90;;;;;;7370275;19;20953;-67
2022/06/01 03:10:23;;;;;;;6.15;4.95;;;9.90;99.90;;;;;;7372563;19;20356;-67
2022/06/01 03:12:49;;;;;;;5.63;5.13;;;10.00;99.90;;;;;;7369804;19;20363;-67
2022/06/01 03:15:16;;;;;;;6.23;5.63;;;10.00;99.90;;;;;;7370656;19;20954;-67
2022/06/01 03:17:41;;;;;;;6.32;5.72;;;10.20;99.90;;;;;;7367831;19;20356;-67
2022/06/01 03:20:08;;;;;;;6.70;6.10;;;10.10;99.90;;;;;;7368253;19;20913;-67
2022/06/01 03:22:37;;;;;;;7.07;6.37;;;10.10;99.90;;;;;;7368062;19;20360;-68
2022/06/01 03:25:04;;;;;;;6.82;6.15;;;10.10;99.90;;;;;;7367529;19;20361;-67
2022/06/01 03:27:29;;;;;;;6.95;6.35;;;10.10;99.90;;;;;;7371074;19;20480;-67
2022/06/01 03:29:55;;;;;;;7.57;6.78;;;10.00;99.90;;;;;;7370571;19;20352;-67
2022/06/01 03:32:21;;;;;;;7.73;6.97;;;10.10;99.90;;;;;;7362655;19;20329;-67
2022/06/01 03:34:47;;;;;;;6.45;5.85;;;10.10;99.90;;;;;;7370323;19;20395;-67
2022/06/01 03:37:12;;;;;;;7.53;6.82;;;10.20;99.90;;;;;;7366196;19;20445;-67
2022/06/01 03:39:38;;;;;;;7.27;6.30;;;10.20;99.90;;;;;;7369528;19;20906;-67
2022/06/01 03:42:04;;;;;;;7.20;6.50;;;10.20;99.90;;;;;;7367215;19;20451;-67
2022/06/01 03:47:13;;;;;;;6.82;6.20;;;10.20;99.90;;;;;;7368433;19;20352;-67
2022/06/01 03:49:39;;;;;;;6.95;6.35;;;10.20;99.90;;;;;;7348024;19;20344;-67
2022/06/01 03:52:05;;;;;;;7.13;6.43;;;10.30;99.90;;;;;;7367636;19;20455;-67
2022/06/01 03:54:31;;;;;;;7.60;6.80;;;10.20;99.90;;;;;;7377520;19;20363;-67
2022/06/01 03:56:57;;;;;;;6.80;6.17;;;10.30;99.90;;;;;;7374248;19;20428;-66
2022/06/01 03:59:22;;;;;;;7.07;6.38;;;10.30;99.90;;;;;;7376661;19;20390;-67
2022/06/01 04:01:48;;;;;;;6.20;5.70;;;10.40;99.90;;;;;;7373866;19;20354;-68
2022/06/01 04:04:13;;;;;;;6.13;5.53;;;10.40;99.90;;;;;;7376806;19;20676;-67
2022/06/01 04:06:39;;;;;;;7.03;6.32;;;10.50;99.90;;;;;;7374219;19;20328;-67
2022/06/01 04:09:05;;;;;;;6.17;5.53;;;10.50;99.90;;;;;;7375088;19;20368;-67
2022/06/01 04:11:30;;;;;;;7.38;6.68;;;10.60;99.90;;;;;;7377855;19;20880;-67
2022/06/01 04:13:56;;;;;;;6.93;6.30;;;10.60;99.90;;;;;;7376943;19;20360;-67
2022/06/01 04:16:22;;;;;;;7.63;6.82;;;10.60;99.90;;;;;;7376380;19;20761;-67
2022/06/01 04:18:48;;;;;;;7.13;6.43;;;10.50;99.90;;;;;;7374207;19;20400;-68
2022/06/01 04:21:14;;;;;;;6.47;5.90;;;10.60;99.90;;;;;;7375492;19;20407;-67
2022/06/01 04:23:40;;;;;;;6.18;5.57;;;10.60;99.90;;;;;;7378841;19;20391;-68
2022/06/01 04:26:05;;;;;;;7.33;6.63;;;10.70;99.90;;;;;;7373085;19;21140;-67
2022/06/01 04:28:31;;;;;;;7.28;6.57;;;10.80;99.90;;;;;;7374730;19;20363;-67
2022/06/01 04:30:56;;;;;;;6.90;6.30;;;10.80;99.90;;;;;;7371149;19;20397;-67
2022/06/01 04:33:22;;;;;;;7.03;6.33;;;10.80;99.90;;;;;;7376604;19;20348;-67
2022/06/01 04:35:48;;;;;;;6.72;6.13;;;10.90;99.90;;;;;;7371179;19;20364;-67
2022/06/01 04:38:13;;;;;;;6.97;6.28;;;11.00;99.90;;;;;;7372440;19;20368;-78
2022/06/01 04:40:46;;;;;;;7.07;6.47;;;10.90;99.90;;;;;;7378378;19;20405;-79
2022/06/01 04:43:13;;;;;;;7.13;6.40;;;11.00;99.90;;;;;;7376842;19;20332;-79
2022/06/01 04:45:39;;;;;;;6.88;6.28;;;11.00;99.90;;;;;;7378214;19;20368;-77
2022/06/01 04:48:04;;;;;;;6.90;6.23;;;11.00;99.90;;;;;;7378414;19;20371;-78
2022/06/01 04:50:30;;;;;;;6.97;6.28;;;11.10;99.90;;;;;;7376294;19;20745;-78
2022/06/01 04:52:56;;;;;;;6.50;5.90;;;11.10;99.90;;;;;;7377700;19;20352;-78
2022/06/01 04:55:22;;;;;;;6.80;6.20;;;11.20;99.90;;;;;;7375117;19;20349;-80
2022/06/01 04:57:48;;;;;;;6.93;6.22;;;11.20;99.90;;;;;;7374036;19;20348;-78
2022/06/01 05:00:14;;;;;;;7.18;6.47;;;11.30;99.90;;;;;;7374028;19;20345;-79
2022/06/01 05:02:40;;;;;;;6.60;5.93;;;11.50;99.90;;;;;;7382406;19;20342;-78
2022/06/01 05:05:06;;;;;;;6.93;6.23;;;11.50;99.90;;;;;;7380002;19;20460;-79
2022/06/01 05:07:32;;;;;;;7.20;6.60;;;11.60;99.90;;;;;;7378303;19;20360;-79
2022/06/01 05:09:57;;;;;;;6.60;6.00;;;11.60;99.90;;;;;;7380620;19;20359;-79
2022/06/01 05:12:23;;;;;;;6.55;6.03;;;11.70;99.90;;;;;;7379674;19;20834;-79
2022/06/01 05:14:48;;;;;;;7.00;5.90;;;11.80;99.90;;;;;;7380059;19;20377;-78
2022/06/01 05:17:14;;;;;;;6.18;5.65;;;11.90;99.90;;;;;;7377287;19;20364;-79
2022/06/01 05:19:40;;;;;;;6.43;5.83;;;12.00;99.90;;;;;;7378487;19;20364;-79
2022/06/01 05:22:05;;;;;;;7.15;6.43;;;12.10;99.90;;;;;;7377825;19;20348;-79
2022/06/01 05:24:31;;;;;;;6.93;6.20;;;12.00;99.90;;;;;;7380139;19;20328;-79
2022/06/01 05:26:56;;;;;;;5.93;5.40;;;12.10;99.90;;;;;;7379127;19;21012;-78
2022/06/01 05:29:22;;;;;;;6.53;6.00;;;12.30;99.90;;;;;;7378856;19;20458;-78
2022/06/01 05:31:48;;;;;;;6.25;5.68;;;12.40;99.90;;;;;;7379093;19;20353;-79
2022/06/01 05:34:14;;;;;;;6.50;5.90;;;12.50;99.90;;;;;;7380610;19;20367;-78
2022/06/01 05:36:40;;;;;;;6.05;5.53;;;12.70;99.90;;;;;;7378026;19;20349;-78
2022/06/01 05:39:05;;;;;;;6.95;5.57;;;12.70;99.90;;;;;;7377984;19;21148;-78
2022/06/01 05:41:31;;;;;;;5.90;5.30;;;12.80;99.90;;;;;;7379489;19;20520;-78
2022/06/01 05:43:57;;;;;;;6.13;5.53;;;12.90;99.90;;;;;;7381993;19;20993;-78
2022/06/01 05:46:23;;;;;;;6.30;5.25;;;13.00;99.90;;;;;;7376768;19;20352;-78
2022/06/01 05:48:48;;;;;;;5.95;5.43;;;13.20;99.90;;;;;;7379502;19;20364;-79
2022/06/01 05:51:14;;;;;;;5.30;4.90;;;13.40;99.90;;;;;;7370578;19;20437;-78
2022/06/01 05:53:40;;;;;;;6.10;5.43;;;13.40;99.90;;;;;;7373541;19;20360;-79
2022/06/01 05:56:05;;;;;;;5.60;5.10;;;13.50;99.90;;;;;;7377124;19;20415;-78
2022/06/01 05:58:32;;;;;;;5.38;4.90;;;13.60;99.90;;;;;;7376910;19;21070;-78
2022/06/01 06:01:00;;;;;;;5.47;4.97;;;13.50;99.90;;;;;;7375189;19;20301;-79
2022/06/01 06:03:27;;;;;;;4.82;4.43;;;13.70;99.90;;;;;;7374986;19;20402;-79
2022/06/01 06:08:38;;;;;;;5.32;4.65;;;14.10;99.90;;;;;;7378933;19;20356;-79
2022/06/01 06:11:06;;;;;;;5.55;5.00;;;14.20;99.90;;;;;;7377521;19;21488;-79
2022/06/01 06:13:35;;;;;;;5.93;4.70;;;14.30;99.90;;;;;;7375389;19;20340;-79
2022/06/01 06:16:02;;;;;;;4.25;3.85;;;14.50;99.90;;;;;;7376515;19;20408;-79
2022/06/01 06:18:28;;;;;;;5.80;4.67;;;14.70;99.90;;;;;;7378065;19;20379;-79
2022/06/01 06:20:53;;;;;;;7.38;5.03;;;14.80;99.90;;;;;;7377568;19;21011;-79
2022/06/01 06:23:19;;;;;;;4.95;4.50;;;14.90;99.90;;;;;;7376349;19;20349;-79
2022/06/01 06:25:45;;;;;;;4.47;4.07;;;15.00;99.90;;;;;;7378555;19;20364;-79
2022/06/01 06:28:10;;;;;;;4.72;4.05;;;15.10;99.90;;;;;;7378359;19;20357;-79
2022/06/01 06:30:36;;;;;;;4.50;4.10;;;15.30;99.90;;;;;;7376699;19;20342;-79
2022/06/01 06:33:02;;;;;;;4.03;3.53;;;15.40;99.90;;;;;;7375510;19;20351;-78
2022/06/01 06:35:28;;;;;;;5.03;4.63;;;15.50;99.90;;;;;;7376832;19;21252;-78
2022/06/01 06:37:54;;;;;;;4.10;3.67;;;15.70;99.90;;;;;;7377340;19;20361;-79
2022/06/01 06:40:19;;;;;;;4.30;3.90;;;15.50;99.90;;;;;;7379474;19;20376;-80
2022/06/01 06:42:45;;;;;;;4.35;3.95;;;15.80;99.90;;;;;;7380604;19;20359;-80
2022/06/01 06:45:11;;;;;;;4.30;3.90;;;15.70;99.90;;;;;;7379874;19;20345;-79
2022/06/01 06:47:36;;;;;;;4.90;4.15;;;15.90;99.90;;;;;;7377020;19;20360;-79
2022/06/01 06:50:04;;;;;;;4.00;3.57;;;16.10;99.90;;;;;;7377895;19;20900;-80
2022/06/01 06:52:30;;;;;;;4.30;3.90;;;16.20;99.90;;;;;;7375626;19;20360;-80
2022/06/01 06:54:56;;;;;;;3.93;3.33;;;16.20;99.90;;;;;;7376218;19;20991;-80
2022/06/01 06:57:21;;;;;;;3.72;3.42;;;16.20;99.90;;;;;;7376614;19;21354;-80
2022/06/01 06:59:48;;;;;;;3.60;3.30;;;16.50;99.90;;;;;;7375114;19;20474;-79
2022/06/01 07:02:16;;;;;;;3.60;3.20;;;16.70;99.90;;;;;;7372351;19;20344;-80
2022/06/01 07:04:42;;;;;;;3.13;2.92;;;16.90;99.90;;;;;;7376183;19;20386;-80
2022/06/01 07:07:08;;;;;;;3.10;2.90;;;17.10;99.90;;;;;;7376023;19;20387;-79
2022/06/01 07:09:33;;;;;;;3.35;3.08;;;17.20;99.90;;;;;;7377571;19;20344;-80
2022/06/01 07:11:59;;;;;;;3.40;3.17;;;17.40;99.90;;;;;;7374810;19;21184;-80
2022/06/01 07:14:25;;;;;;;3.17;2.92;;;17.20;99.90;;;;;;7376343;19;20360;-79
2022/06/01 07:16:50;;;;;;;2.97;2.73;;;17.20;99.90;;;;;;7375166;19;20343;-79
2022/06/01 07:19:16;;;;;;;3.20;2.90;;;17.30;99.90;;;;;;7377073;19;20341;-80
2022/06/01 07:21:42;;;;;;;3.00;2.60;;;17.40;99.90;;;;;;7373190;19;21017;-80
2022/06/01 07:24:08;;;;;;;2.80;2.60;;;17.30;99.90;;;;;;7375294;19;20352;-79
2022/06/01 07:26:37;;;;;;;4.43;2.97;;;17.50;99.90;;;;;;7379803;19;20364;-79
2022/06/01 07:29:03;;;;;;;3.10;2.80;;;17.50;99.90;;;;;;7384119;19;20360;-80
2022/06/01 07:31:29;;;;;;;4.10;2.30;;;17.40;99.90;;;;;;7382527;19;20354;-80
2022/06/01 07:33:54;;;;;;;2.80;2.60;;;17.80;99.90;;;;;;7383038;19;20770;-79
2022/06/01 07:36:20;;;;;;;2.70;2.50;;;17.60;99.90;;;;;;7382805;19;20358;-80
2022/06/01 07:44:30;;;;;;;3.47;2.80;;;18.20;99.90;;;;;;7385055;19;20366;-79
2022/06/01 07:46:56;;;;;;;2.80;2.60;;;18.50;99.90;;;;;;7383390;19;21088;-80
2022/06/01 07:49:21;;;;;;;3.45;2.67;;;18.50;99.90;;;;;;7384960;19;20419;-80
2022/06/01 07:51:50;;;;;;;3.10;2.90;;;18.60;99.90;;;;;;7381728;19;20377;-79
2022/06/01 07:54:16;;;;;;;3.00;2.80;;;18.80;99.90;;;;;;7382310;19;20368;-80
2022/06/01 07:56:41;;;;;;;3.25;2.95;;;18.80;99.90;;;;;;7381781;19;20691;-81
2022/06/01 07:59:08;;;;;;;3.43;2.80;;;19.10;99.90;;;;;;7385165;19;20384;-80
2022/06/01 08:01:34;;;;;;;2.87;2.60;;;19.50;99.90;;;;;;7380683;19;20373;-80
2022/06/01 08:04:04;;;;;;;3.03;2.80;;;19.70;99.90;;;;;;7386048;19;20344;-81
2022/06/01 08:06:31;;;;;;;2.80;2.60;;;19.60;99.90;;;;;;7382618;19;20389;-80
2022/06/01 08:08:56;;;;;;;2.63;2.42;;;19.80;99.90;;;;;;7385685;19;20891;-80
2022/06/01 08:13:06;;;;;;;2.63;2.43;;;20.10;99.90;;;;;;7384728;19;20362;-81
2022/06/01 08:14:12;;;;;;;2.80;2.55;;;20.00;99.90;;;;;;7385974;19;20364;-81
2022/06/01 08:16:38;;;;;;;3.05;2.70;;;20.00;99.90;;;;;;7384718;19;20917;-81
2022/06/01 08:19:05;;;;;;;2.88;2.67;;;20.00;99.90;;;;;;7395264;19;20368;-79
2022/06/01 08:21:32;;;;;;;2.92;2.72;;;19.80;99.90;;;;;;7388167;19;20364;-80
2022/06/01 08:23:57;;;;;;;2.50;2.30;;;19.70;99.90;;;;;;7386047;19;20363;-80
2022/06/01 08:26:23;;;;;;;2.23;2.03;;;19.80;99.90;;;;;;7380231;19;20340;-80
2022/06/01 08:28:49;;;;;;;2.72;2.20;;;20.20;99.90;;;;;;7385307;19;20344;-81
2022/06/01 08:31:15;;;;;;;2.10;2.00;;;20.30;99.90;;;;;;7387234;19;20344;-81
2022/06/01 08:33:41;;;;;;;1.80;1.70;;;20.60;99.90;;;;;;7388877;19;20399;-81
2022/06/01 08:36:07;;;;;;;1.75;1.65;;;21.00;99.90;;;;;;7393416;19;20416;-80
2022/06/01 08:38:35;;;;;;;2.38;2.17;;;21.30;99.90;;;;;;7397373;19;20360;-81
2022/06/01 08:41:08;;;;;;;1.87;1.77;;;20.80;99.90;;;;;;7392121;19;20360;-80
2022/06/01 08:43:45;;;;;;;3.28;2.08;;;21.30;99.90;;;;;;7393097;19;20436;-80
2022/06/01 08:46:11;;;;;;;2.03;1.92;;;21.70;99.90;;;;;;7393439;19;20375;-81
2022/06/01 08:48:41;;;;;;;2.17;1.98;;;22.00;99.90;;;;;;7398500;19;20373;-80
2022/06/01 08:51:07;;;;;;;2.23;2.10;;;22.00;99.90;;;;;;7398388;19;21212;-81
2022/06/01 08:53:33;;;;;;;1.92;1.83;;;22.20;99.90;;;;;;7391882;19;20409;-80
2022/06/01 08:56:10;;;;;;;1.88;1.77;;;22.50;99.90;;;;;;7391412;19;20363;-81
2022/06/01 08:58:41;;;;;;;1.87;1.77;;;22.50;99.90;;;;;;7398195;19;20356;-81
2022/06/01 09:01:19;;;;;;;2.00;1.90;;;22.40;99.90;;;;;;7390796;19;20349;-80
2022/06/01 09:04:25;;;;;;;1.80;1.70;;;22.00;99.90;;;;;;7393740;19;20385;-81
2022/06/01 09:07:21;;;;;;;1.70;1.42;;;21.60;99.90;;;;;;7390346;19;20462;-81
2022/06/01 09:10:05;;;;;;;1.60;1.50;;;21.80;99.90;;;;;;7390675;19;20416;-81
2022/06/01 09:12:33;;;;;;;1.60;1.50;;;21.70;99.90;;;;;;7389784;19;20440;-81
2022/06/01 09:14:59;;;;;;;1.60;1.50;;;21.40;99.90;;;;;;7388026;19;20352;-81
2022/06/01 09:17:27;;;;;;;2.00;1.80;;;21.60;99.90;;;;;;7388832;19;20367;-81
2022/06/01 09:22:53;;;;;;;1.50;1.40;;;21.40;99.90;;;;;;7407184;19;20360;-81
2022/06/01 09:25:32;;;;;;;1.90;1.60;;;21.50;99.90;;;;;;7412903;19;20341;-81
2022/06/01 09:28:05;;;;;;;2.00;1.80;;;21.20;99.90;;;;;;7410169;19;20360;-80
2022/06/01 09:30:41;;;;;;;1.90;1.70;;;21.20;99.90;;;;;;7415543;19;20317;-81
2022/06/01 09:33:29;;;;;;;1.88;1.77;;;21.70;99.90;;;;;;7414924;19;20352;-81
2022/06/01 09:36:08;;;;;;;1.60;1.50;;;21.60;99.90;;;;;;7424420;19;20348;-81
2022/06/01 09:38:52;;;;;;;1.77;1.67;;;21.80;99.90;;;;;;7428863;19;20412;-81
2022/06/01 09:41:24;;;;;;;2.50;2.05;;;22.00;99.90;;;;;;7427565;19;20364;-81
2022/06/01 09:43:54;;;;;;;1.70;1.60;;;22.30;96.40;;;;;;7415438;19;20407;-82
2022/06/01 09:46:35;;;;;;;1.70;1.60;;;22.60;99.80;;;;;;7418595;19;20348;-82
2022/06/01 09:49:25;;;;;;;1.58;1.40;;;22.90;99.60;;;;;;7419523;19;20332;-82
2022/06/01 09:52:00;;;;;;;1.40;1.30;;;22.70;96.20;;;;;;7421707;19;20368;-81
2022/06/01 09:54:32;;;;;;;3.13;1.30;;;22.60;95.60;;;;;;7420775;19;20400;-80
2022/06/01 09:56:59;;;;;;;1.55;1.30;;;21.60;93.20;;;;;;7402352;19;20372;-81
2022/06/01 10:08:25;;;;;;;1.27;1.20;;;21.30;95.10;;;;;;7407927;19;20364;-82
2022/06/01 10:11:23;;;;;;;1.70;1.30;;;21.30;94.50;;;;;;7403346;19;20381;-81
2022/06/01 10:14:36;;;;;;;1.60;1.38;;;21.20;96.50;;;;;;7414146;19;20336;-81
2022/06/01 10:17:44;;;;;;;1.70;1.50;;;21.40;97.10;;;;;;7400021;19;20424;-81
2022/06/01 10:20:27;;;;;;;1.60;1.40;;;20.20;93.80;;;;;;7403280;19;20353;-82
2022/06/01 10:23:40;;;;;;;1.60;1.50;;;20.20;97.70;;;;;;7402754;19;20360;-81
2022/06/01 10:26:09;;;;;;;1.30;1.20;;;20.30;98.90;;;;;;7407520;19;20456;-81
2022/06/01 10:29:37;;;;;;;2.60;1.30;;;20.20;97.20;;;;;;7410495;19;20404;-82
2022/06/01 10:32:47;;;;;;;1.10;1.10;;;19.90;95.40;;;;;;7408265;19;20684;-82
2022/06/01 10:35:59;;;;;;;1.30;1.20;;;20.40;98.50;;;;;;7415018;19;20386;-83
2022/06/01 10:38:46;;;;;;;1.10;1.10;;;20.80;98.50;;;;;;7418189;19;20377;-81
2022/06/01 10:41:32;;;;;;;1.85;1.40;;;20.50;99.50;;;;;;7421801;19;20369;-82
2022/06/01 10:44:24;;;;;;;2.47;1.50;;;20.60;99.90;;;;;;7422288;19;20363;-81
2022/06/01 10:47:26;;;;;;;1.52;1.42;;;20.50;99.90;;;;;;7418083;19;20340;-82
2022/06/01 10:50:32;;;;;;;1.50;1.40;;;20.80;99.90;;;;;;7419399;19;20397;-83
2022/06/01 10:56:35;;;;;;;1.38;1.30;;;21.20;99.90;;;;;;7410230;19;20405;-81
2022/06/01 10:59:07;;;;;;;1.40;1.30;;;21.30;99.90;;;;;;7406549;19;20340;-81
2022/06/01 11:02:04;;;;;;;1.40;1.30;;;21.60;99.90;;;;;;7407636;19;20340;-82
2022/06/01 11:05:09;;;;;;;1.40;1.30;;;21.90;99.90;;;;;;7412061;19;20388;-81
2022/06/01 11:08:02;;;;;;;1.98;1.60;;;22.00;97.90;;;;;;7399783;19;20368;-81
2022/06/01 11:10:58;;;;;;;1.58;1.48;;;21.90;99.90;;;;;;7400291;19;20356;-81
2022/06/01 11:14:01;;;;;;;1.45;1.30;;;21.60;98.70;;;;;;7408393;19;20361;-81
2022/06/01 11:16:54;;;;;;;1.38;1.27;;;21.50;98.50;;;;;;7393054;19;20425;-81
2022/06/01 11:19:57;;;;;;;1.80;1.00;;;21.00;94.10;;;;;;7397062;19;20364;-81
2022/06/01 11:25:39;;;;;;;1.02;1.02;;;22.10;92.00;;;;;;7406563;19;20423;-89
2022/06/01 11:28:09;;;;;;;2.05;1.85;;;21.90;90.20;;;;;;7393341;19;21090;-90
2022/06/01 11:30:49;;;;;;;1.48;1.17;;;21.90;91.60;;;;;;7388523;19;20325;-81
2022/06/01 11:33:35;;;;;;;1.40;1.30;;;22.00;91.20;;;;;;7388166;19;20388;-84
2022/06/01 11:36:09;;;;;;;1.10;1.10;;;21.40;92.30;;;;;;7383874;19;20348;-86
2022/06/01 11:38:37;;;;;;;1.30;1.20;;;21.30;92.60;;;;;;7389324;19;20717;-81
2022/06/01 11:41:11;;;;;;;1.30;1.20;;;21.30;93.40;;;;;;7384682;19;20989;-83
2022/06/01 11:44:09;;;;;;;1.17;1.15;;;21.80;94.80;;;;;;7385709;19;20387;-89
2022/06/01 11:46:55;;;;;;;1.45;1.25;;;22.40;93.50;;;;;;7386673;19;20420;-83
2022/06/01 11:49:41;;;;;;;1.10;1.10;;;23.20;95.50;;;;;;7391568;19;21164;-86
2022/06/01 11:52:17;;;;;;;1.13;1.03;;;23.90;89.30;;;;;;7392433;19;20352;-87
2022/06/01 11:54:42;;;;;;;0.90;0.90;;;23.90;84.70;;;;;;7390727;19;21146;-85
2022/06/01 11:57:24;;;;;;;1.10;1.07;;;24.00;83.90;;;;;;7398325;19;20341;-84
2022/06/01 11:59:56;;;;;;;1.02;1.02;;;24.50;81.80;;;;;;7398385;19;20399;-86
2022/06/01 12:02:41;;;;;;;1.15;1.05;;;24.30;77.20;;;;;;7393164;19;20435;-91
2022/06/01 12:05:26;;;;;;;1.10;1.00;;;24.30;77.40;;;;;;7396024;19;20384;-85
2022/06/01 12:07:54;;;;;;;1.67;1.40;;;23.90;76.70;;;;;;7400338;19;20775;-88
2022/06/01 12:10:21;;;;;;;1.65;1.02;;;24.70;79.10;;;;;;7398284;19;20417;-89
2022/06/01 12:12:57;;;;;;;0.93;0.90;;;24.30;77.30;;;;;;7399145;19;20356;-89
2022/06/01 12:15:29;;;;;;;1.70;1.00;;;25.00;77.70;;;;;;7406644;19;20357;-90
2022/06/01 12:18:04;;;;;;;1.70;1.08;;;25.30;75.40;;;;;;7407755;19;20352;-84
2022/06/01 12:20:33;;;;;;;1.10;0.88;;;25.60;76.90;;;;;;7400943;19;20373;-86
2022/06/01 12:28:52;;;;;;;3.50;0.90;;;25.10;68.70;;;;;;7412067;19;20344;-89
2022/06/01 12:31:23;;;;;;;0.82;0.82;;;25.60;67.40;;;;;;7407398;19;20348;-89
2022/06/01 12:34:13;;;;;;;0.90;0.90;;;25.30;68.80;;;;;;7408433;19;20402;-84
2022/06/01 12:36:54;;;;;;;0.90;0.90;;;25.50;67.90;;;;;;7407703;19;20361;-87
2022/06/01 12:39:21;;;;;;;1.10;1.00;;;25.80;67.70;;;;;;7413616;19;20471;-88
2022/06/01 12:41:58;;;;;;;0.70;0.70;;;25.90;62.90;;;;;;7410355;19;20349;-91
2022/06/01 12:44:24;;;;;;;1.00;1.00;;;26.30;64.10;;;;;;7410452;19;20368;-90
2022/06/01 12:46:51;;;;;;;1.00;1.00;;;26.50;63.30;;;;;;7415027;19;20357;-89
2022/06/01 12:49:36;;;;;;;1.05;0.90;;;26.30;64.70;;;;;;7414837;19;20416;-83
2022/06/01 12:52:12;;;;;;;0.75;0.75;;;26.50;61.40;;;;;;7415787;19;20377;-85
2022/06/01 12:54:42;;;;;;;2.40;1.00;;;26.70;65.60;;;;;;7413610;19;20377;-88
2022/06/01 12:57:12;;;;;;;1.13;1.02;;;26.80;63.20;;;;;;7413732;19;20376;-87
2022/06/01 12:59:39;;;;;;;0.90;0.90;;;27.20;62.30;;;;;;7417174;19;20385;-87
2022/06/01 13:02:08;;;;;;;2.90;1.10;;;27.10;58.20;;;;;;7411035;19;20352;-90
2022/06/01 13:04:36;;;;;;;1.30;0.90;;;26.40;57.50;;;;;;7410318;19;20428;-89
2022/06/01 13:07:02;;;;;;;1.30;1.05;;;26.10;58.70;;;;;;7409561;19;20387;-87
2022/06/01 13:09:29;;;;;;;0.88;0.88;;;25.90;60.00;;;;;;7408988;19;20352;-87
2022/06/01 13:12:00;;;;;;;1.08;1.00;;;25.40;59.70;;;;;;7402714;19;20364;-86
2022/06/01 13:14:26;;;;;;;1.00;0.90;;;25.30;61.50;;;;;;7401082;19;20373;-84
2022/06/01 13:16:52;;;;;;;0.90;0.90;;;25.70;62.80;;;;;;7401824;19;20372;-80
2022/06/01 13:19:29;;;;;;;1.67;1.00;;;25.10;60.30;;;;;;7404707;19;20812;-87
2022/06/01 13:22:11;;;;;;;0.82;0.82;;;24.90;62.80;;;;;;7404605;19;20357;-90
2022/06/01 13:24:45;;;;;;;1.00;1.00;;;24.20;59.70;;;;;;7406005;19;20376;-90
2022/06/01 13:27:10;;;;;;;0.80;0.80;;;24.10;62.30;;;;;;7409081;19;20763;-86
2022/06/01 13:29:40;;;;;;;0.75;0.75;;;24.00;64.20;;;;;;7403553;19;20377;-85
2022/06/01 13:32:08;;;;;;;3.00;1.10;;;24.10;62.60;;;;;;7400534;19;20356;-86
2022/06/01 13:34:45;;;;;;;0.80;0.80;;;24.40;59.50;;;;;;7405349;19;20477;-85
2022/06/01 13:37:16;;;;;;;2.30;1.00;;;24.30;59.80;;;;;;7403623;19;20357;-87
2022/06/01 13:39:54;;;;;;;0.95;0.95;;;24.00;58.10;;;;;;7400923;19;20899;-83
2022/06/01 13:42:32;;;;;;;1.98;0.90;;;23.50;58.70;;;;;;7398849;19;20452;-86
2022/06/01 13:45:03;;;;;;;0.90;0.90;;;23.10;58.90;;;;;;7401541;19;20381;-86
2022/06/01 13:47:35;;;;;;;1.08;0.95;;;23.30;60.80;;;;;;7401696;19;20368;-86